sensor_id;sensor_type;location;lat;lon;timestamp;P1;durP1;ratioP1;P2;durP2;ratioP2
51042;SDS011;37078;45.806;9.084;2022-09-09T00:00:22;14.07;;;4.30;;
51042;SDS011;37078;45.806;9.084;2022-09-09T00:05:52;11.35;;;4.28;;
51042;SDS011;37078;45.806;9.084;2022-09-09T00:08:34;13.48;;;4.38;;
51042;SDS011;37078;45.806;9.084;2022-09-09T00:11:11;12.02;;;4.53;;
51042;SDS011;37078;45.806;9.084;2022-09-09T00:13:42;11.80;;;4.40;;
51042;SDS011;37078;45.806;9.084;2022-09-09T00:16:19;12.10;;;4.75;;
51042;SDS011;37078;45.806;9.084;2022-09-09T00:21:44;11.82;;;4.10;;
51042;SDS011;37078;45.806;9.084;2022-09-09T00:27:11;14.63;;;4.53;;
51042;SDS011;37078;45.806;9.084;2022-09-09T00:30:12;15.02;;;4.75;;
51042;SDS011;37078;45.806;9.084;2022-09-09T00:32:57;11.73;;;4.35;;
51042;SDS011;37078;45.806;9.084;2022-09-09T00:35:27;12.75;;;4.82;;
51042;SDS011;37078;45.806;9.084;2022-09-09T00:37:56;12.38;;;4.65;;
51042;SDS011;37078;45.806;9.084;2022-09-09T00:40:29;12.88;;;4.50;;
51042;SDS011;37078;45.806;9.084;2022-09-09T00:43:15;11.30;;;4.03;;
51042;SDS011;37078;45.806;9.084;2022-09-09T00:48:19;12.18;;;4.20;;
51042;SDS011;37078;45.806;9.084;2022-09-09T00:50:57;12.13;;;4.13;;
51042;SDS011;37078;45.806;9.084;2022-09-09T00:53:51;11.40;;;4.05;;
51042;SDS011;37078;45.806;9.084;2022-09-09T00:56:33;10.75;;;3.67;;
51042;SDS011;37078;45.806;9.084;2022-09-09T01:01:35;12.45;;;4.47;;
51042;SDS011;37078;45.806;9.084;2022-09-09T01:04:01;14.23;;;3.90;;
51042;SDS011;37078;45.806;9.084;2022-09-09T01:06:35;9.75;;;3.60;;
51042;SDS011;37078;45.806;9.084;2022-09-09T01:11:52;10.90;;;4.18;;
51042;SDS011;37078;45.806;9.084;2022-09-09T01:20:05;10.50;;;3.70;;
51042;SDS011;37078;45.806;9.084;2022-09-09T01:25:56;9.32;;;3.60;;
51042;SDS011;37078;45.806;9.084;2022-09-09T01:28:36;11.73;;;4.07;;
51042;SDS011;37078;45.806;9.084;2022-09-09T01:31:04;10.82;;;3.55;;
51042;SDS011;37078;45.806;9.084;2022-09-09T01:33:31;11.15;;;3.55;;
51042;SDS011;37078;45.806;9.084;2022-09-09T01:38:34;10.82;;;3.50;;
51042;SDS011;37078;45.806;9.084;2022-09-09T01:41:00;11.90;;;3.40;;
51042;SDS011;37078;45.806;9.084;2022-09-09T01:43:26;9.88;;;3.60;;
51042;SDS011;37078;45.806;9.084;2022-09-09T01:45:53;9.43;;;3.63;;
51042;SDS011;37078;45.806;9.084;2022-09-09T01:48:23;11.43;;;3.33;;
51042;SDS011;37078;45.806;9.084;2022-09-09T01:50:50;11.27;;;3.80;;
51042;SDS011;37078;45.806;9.084;2022-09-09T01:53:17;11.50;;;3.35;;
51042;SDS011;37078;45.806;9.084;2022-09-09T01:56:28;17.23;;;3.35;;
51042;SDS011;37078;45.806;9.084;2022-09-09T02:04:18;11.15;;;3.30;;
51042;SDS011;37078;45.806;9.084;2022-09-09T02:06:53;10.40;;;3.22;;
51042;SDS011;37078;45.806;9.084;2022-09-09T02:09:22;10.07;;;3.17;;
51042;SDS011;37078;45.806;9.084;2022-09-09T02:11:49;8.55;;;3.10;;
51042;SDS011;37078;45.806;9.084;2022-09-09T02:14:25;8.15;;;2.85;;
51042;SDS011;37078;45.806;9.084;2022-09-09T02:19:34;8.18;;;2.90;;
51042;SDS011;37078;45.806;9.084;2022-09-09T02:22:04;9.73;;;3.15;;
51042;SDS011;37078;45.806;9.084;2022-09-09T02:24:30;8.98;;;2.88;;
51042;SDS011;37078;45.806;9.084;2022-09-09T02:26:58;9.43;;;3.10;;
51042;SDS011;37078;45.806;9.084;2022-09-09T02:29:29;11.25;;;3.67;;
51042;SDS011;37078;45.806;9.084;2022-09-09T02:31:59;11.40;;;3.30;;
51042;SDS011;37078;45.806;9.084;2022-09-09T02:34:29;9.68;;;3.30;;
51042;SDS011;37078;45.806;9.084;2022-09-09T02:36:57;9.95;;;3.40;;
51042;SDS011;37078;45.806;9.084;2022-09-09T02:39:26;10.02;;;3.00;;
51042;SDS011;37078;45.806;9.084;2022-09-09T02:41:51;11.27;;;3.03;;
51042;SDS011;37078;45.806;9.084;2022-09-09T02:44:17;10.32;;;2.85;;
51042;SDS011;37078;45.806;9.084;2022-09-09T02:52:18;9.52;;;3.05;;
51042;SDS011;37078;45.806;9.084;2022-09-09T02:54:51;9.13;;;3.42;;
51042;SDS011;37078;45.806;9.084;2022-09-09T02:57:24;10.15;;;3.35;;
51042;SDS011;37078;45.806;9.084;2022-09-09T02:59:53;8.55;;;2.80;;
51042;SDS011;37078;45.806;9.084;2022-09-09T03:02:21;10.77;;;3.28;;
51042;SDS011;37078;45.806;9.084;2022-09-09T03:04:47;11.38;;;3.60;;
51042;SDS011;37078;45.806;9.084;2022-09-09T03:09:42;8.95;;;3.10;;
51042;SDS011;37078;45.806;9.084;2022-09-09T03:12:08;12.50;;;3.35;;
51042;SDS011;37078;45.806;9.084;2022-09-09T03:14:33;9.35;;;2.97;;
51042;SDS011;37078;45.806;9.084;2022-09-09T03:16:58;10.27;;;3.00;;
51042;SDS011;37078;45.806;9.084;2022-09-09T03:19:26;9.63;;;3.03;;
51042;SDS011;37078;45.806;9.084;2022-09-09T03:21:52;10.15;;;3.10;;
51042;SDS011;37078;45.806;9.084;2022-09-09T03:24:18;11.50;;;3.20;;
51042;SDS011;37078;45.806;9.084;2022-09-09T03:26:44;11.82;;;3.05;;
51042;SDS011;37078;45.806;9.084;2022-09-09T03:29:10;9.25;;;2.95;;
51042;SDS011;37078;45.806;9.084;2022-09-09T03:31:37;9.52;;;3.10;;
51042;SDS011;37078;45.806;9.084;2022-09-09T03:34:02;10.38;;;2.95;;
51042;SDS011;37078;45.806;9.084;2022-09-09T03:36:28;10.23;;;2.80;;
51042;SDS011;37078;45.806;9.084;2022-09-09T03:38:54;12.50;;;3.10;;
51042;SDS011;37078;45.806;9.084;2022-09-09T03:41:20;9.75;;;2.75;;
51042;SDS011;37078;45.806;9.084;2022-09-09T03:46:15;9.27;;;2.72;;
51042;SDS011;37078;45.806;9.084;2022-09-09T03:48:41;8.50;;;2.50;;
51042;SDS011;37078;45.806;9.084;2022-09-09T03:51:06;6.85;;;2.22;;
51042;SDS011;37078;45.806;9.084;2022-09-09T03:53:31;7.68;;;2.20;;
51042;SDS011;37078;45.806;9.084;2022-09-09T03:55:58;9.27;;;2.50;;
51042;SDS011;37078;45.806;9.084;2022-09-09T03:58:24;8.93;;;3.25;;
51042;SDS011;37078;45.806;9.084;2022-09-09T04:03:20;7.97;;;2.17;;
51042;SDS011;37078;45.806;9.084;2022-09-09T04:05:48;6.30;;;2.30;;
51042;SDS011;37078;45.806;9.084;2022-09-09T04:08:13;7.67;;;2.47;;
51042;SDS011;37078;45.806;9.084;2022-09-09T04:10:39;7.82;;;2.38;;
51042;SDS011;37078;45.806;9.084;2022-09-09T04:13:05;7.43;;;2.38;;
51042;SDS011;37078;45.806;9.084;2022-09-09T04:15:30;6.38;;;2.20;;
51042;SDS011;37078;45.806;9.084;2022-09-09T04:17:56;7.90;;;2.70;;
51042;SDS011;37078;45.806;9.084;2022-09-09T04:20:21;7.75;;;2.47;;
51042;SDS011;37078;45.806;9.084;2022-09-09T04:22:47;6.80;;;2.30;;
51042;SDS011;37078;45.806;9.084;2022-09-09T04:25:13;8.57;;;2.50;;
51042;SDS011;37078;45.806;9.084;2022-09-09T04:27:38;8.80;;;2.50;;
51042;SDS011;37078;45.806;9.084;2022-09-09T04:30:03;7.15;;;2.20;;
51042;SDS011;37078;45.806;9.084;2022-09-09T04:32:31;10.68;;;2.45;;
51042;SDS011;37078;45.806;9.084;2022-09-09T04:34:57;8.30;;;2.60;;
51042;SDS011;37078;45.806;9.084;2022-09-09T04:37:23;7.47;;;2.40;;
51042;SDS011;37078;45.806;9.084;2022-09-09T04:39:49;7.45;;;2.42;;
51042;SDS011;37078;45.806;9.084;2022-09-09T04:42:15;7.53;;;2.50;;
51042;SDS011;37078;45.806;9.084;2022-09-09T04:44:42;8.57;;;2.50;;
51042;SDS011;37078;45.806;9.084;2022-09-09T04:47:08;7.25;;;2.40;;
51042;SDS011;37078;45.806;9.084;2022-09-09T04:49:34;8.85;;;2.72;;
51042;SDS011;37078;45.806;9.084;2022-09-09T04:52:00;8.82;;;2.58;;
51042;SDS011;37078;45.806;9.084;2022-09-09T04:54:26;9.02;;;2.50;;
51042;SDS011;37078;45.806;9.084;2022-09-09T04:56:53;6.25;;;2.20;;
51042;SDS011;37078;45.806;9.084;2022-09-09T04:59:18;4.95;;;2.20;;
51042;SDS011;37078;45.806;9.084;2022-09-09T05:01:44;7.65;;;2.33;;
51042;SDS011;37078;45.806;9.084;2022-09-09T05:04:09;7.70;;;2.30;;
51042;SDS011;37078;45.806;9.084;2022-09-09T05:06:35;7.63;;;2.50;;
51042;SDS011;37078;45.806;9.084;2022-09-09T05:09:01;7.93;;;2.40;;
51042;SDS011;37078;45.806;9.084;2022-09-09T05:11:27;8.55;;;2.50;;
51042;SDS011;37078;45.806;9.084;2022-09-09T05:13:54;7.68;;;2.28;;
51042;SDS011;37078;45.806;9.084;2022-09-09T05:16:22;10.25;;;2.70;;
51042;SDS011;37078;45.806;9.084;2022-09-09T05:18:47;10.10;;;2.55;;
51042;SDS011;37078;45.806;9.084;2022-09-09T05:21:15;9.23;;;2.42;;
51042;SDS011;37078;45.806;9.084;2022-09-09T05:23:41;6.88;;;2.42;;
51042;SDS011;37078;45.806;9.084;2022-09-09T05:26:09;8.57;;;2.40;;
51042;SDS011;37078;45.806;9.084;2022-09-09T05:28:38;8.52;;;2.50;;
51042;SDS011;37078;45.806;9.084;2022-09-09T05:31:04;9.02;;;2.45;;
51042;SDS011;37078;45.806;9.084;2022-09-09T05:33:33;8.20;;;2.35;;
51042;SDS011;37078;45.806;9.084;2022-09-09T05:36:00;8.88;;;2.28;;
51042;SDS011;37078;45.806;9.084;2022-09-09T05:38:29;5.63;;;2.05;;
51042;SDS011;37078;45.806;9.084;2022-09-09T05:40:55;7.43;;;2.30;;
51042;SDS011;37078;45.806;9.084;2022-09-09T05:43:21;8.50;;;2.30;;
51042;SDS011;37078;45.806;9.084;2022-09-09T05:45:48;10.18;;;2.65;;
51042;SDS011;37078;45.806;9.084;2022-09-09T05:48:23;6.88;;;2.38;;
51042;SDS011;37078;45.806;9.084;2022-09-09T05:50:52;5.28;;;2.10;;
51042;SDS011;37078;45.806;9.084;2022-09-09T05:53:19;7.72;;;2.42;;
51042;SDS011;37078;45.806;9.084;2022-09-09T05:55:45;7.75;;;2.10;;
51042;SDS011;37078;45.806;9.084;2022-09-09T05:58:10;8.48;;;2.30;;
51042;SDS011;37078;45.806;9.084;2022-09-09T06:00:36;7.90;;;2.40;;
51042;SDS011;37078;45.806;9.084;2022-09-09T06:03:02;11.80;;;2.55;;
51042;SDS011;37078;45.806;9.084;2022-09-09T06:05:28;5.45;;;2.13;;
51042;SDS011;37078;45.806;9.084;2022-09-09T06:07:54;6.30;;;2.30;;
51042;SDS011;37078;45.806;9.084;2022-09-09T06:10:20;8.98;;;2.33;;
51042;SDS011;37078;45.806;9.084;2022-09-09T06:12:45;8.63;;;2.20;;
51042;SDS011;37078;45.806;9.084;2022-09-09T06:15:10;8.40;;;2.30;;
51042;SDS011;37078;45.806;9.084;2022-09-09T06:17:36;7.82;;;2.50;;
51042;SDS011;37078;45.806;9.084;2022-09-09T06:20:02;8.13;;;2.33;;
51042;SDS011;37078;45.806;9.084;2022-09-09T06:22:27;6.20;;;2.20;;
51042;SDS011;37078;45.806;9.084;2022-09-09T06:24:53;7.43;;;2.50;;
51042;SDS011;37078;45.806;9.084;2022-09-09T06:27:18;7.35;;;2.47;;
51042;SDS011;37078;45.806;9.084;2022-09-09T06:29:43;6.88;;;2.40;;
51042;SDS011;37078;45.806;9.084;2022-09-09T06:32:09;7.50;;;2.40;;
51042;SDS011;37078;45.806;9.084;2022-09-09T06:34:34;8.15;;;2.10;;
51042;SDS011;37078;45.806;9.084;2022-09-09T06:37:01;11.35;;;2.25;;
51042;SDS011;37078;45.806;9.084;2022-09-09T06:39:27;9.77;;;3.05;;
51042;SDS011;37078;45.806;9.084;2022-09-09T06:41:52;8.88;;;2.25;;
51042;SDS011;37078;45.806;9.084;2022-09-09T06:44:18;7.25;;;2.22;;
51042;SDS011;37078;45.806;9.084;2022-09-09T06:46:44;7.40;;;2.38;;
51042;SDS011;37078;45.806;9.084;2022-09-09T06:49:12;7.53;;;2.53;;
51042;SDS011;37078;45.806;9.084;2022-09-09T06:51:38;7.57;;;2.28;;
51042;SDS011;37078;45.806;9.084;2022-09-09T06:54:07;7.07;;;2.40;;
51042;SDS011;37078;45.806;9.084;2022-09-09T06:56:35;9.15;;;2.33;;
51042;SDS011;37078;45.806;9.084;2022-09-09T06:59:06;10.70;;;2.70;;
51042;SDS011;37078;45.806;9.084;2022-09-09T07:01:37;6.78;;;2.20;;
51042;SDS011;37078;45.806;9.084;2022-09-09T07:04:05;14.98;;;2.88;;
51042;SDS011;37078;45.806;9.084;2022-09-09T07:06:36;6.72;;;2.13;;
51042;SDS011;37078;45.806;9.084;2022-09-09T07:09:07;7.55;;;2.50;;
51042;SDS011;37078;45.806;9.084;2022-09-09T07:11:37;8.45;;;2.72;;
51042;SDS011;37078;45.806;9.084;2022-09-09T07:14:07;10.35;;;2.47;;
51042;SDS011;37078;45.806;9.084;2022-09-09T07:16:33;8.60;;;2.47;;
51042;SDS011;37078;45.806;9.084;2022-09-09T07:19:02;8.83;;;2.40;;
51042;SDS011;37078;45.806;9.084;2022-09-09T07:21:28;7.80;;;2.30;;
51042;SDS011;37078;45.806;9.084;2022-09-09T07:23:55;6.90;;;2.50;;
51042;SDS011;37078;45.806;9.084;2022-09-09T07:26:25;5.07;;;2.22;;
51042;SDS011;37078;45.806;9.084;2022-09-09T07:28:52;8.77;;;2.40;;
51042;SDS011;37078;45.806;9.084;2022-09-09T07:31:19;8.73;;;2.60;;
51042;SDS011;37078;45.806;9.084;2022-09-09T07:33:49;11.50;;;2.33;;
51042;SDS011;37078;45.806;9.084;2022-09-09T07:36:22;7.45;;;2.40;;
51042;SDS011;37078;45.806;9.084;2022-09-09T07:38:59;8.02;;;2.38;;
51042;SDS011;37078;45.806;9.084;2022-09-09T07:41:28;7.93;;;2.30;;
51042;SDS011;37078;45.806;9.084;2022-09-09T07:46:22;6.78;;;2.45;;
51042;SDS011;37078;45.806;9.084;2022-09-09T07:48:57;9.00;;;2.58;;
51042;SDS011;37078;45.806;9.084;2022-09-09T07:51:27;8.40;;;2.30;;
51042;SDS011;37078;45.806;9.084;2022-09-09T07:53:58;8.93;;;2.38;;
51042;SDS011;37078;45.806;9.084;2022-09-09T07:56:27;7.25;;;2.08;;
51042;SDS011;37078;45.806;9.084;2022-09-09T07:58:54;6.15;;;2.33;;
51042;SDS011;37078;45.806;9.084;2022-09-09T08:01:22;7.60;;;2.13;;
51042;SDS011;37078;45.806;9.084;2022-09-09T08:03:59;7.82;;;2.55;;
51042;SDS011;37078;45.806;9.084;2022-09-09T08:06:27;6.07;;;2.00;;
51042;SDS011;37078;45.806;9.084;2022-09-09T08:08:54;7.78;;;2.20;;
51042;SDS011;37078;45.806;9.084;2022-09-09T08:11:20;8.25;;;2.38;;
51042;SDS011;37078;45.806;9.084;2022-09-09T08:13:48;4.28;;;2.10;;
51042;SDS011;37078;45.806;9.084;2022-09-09T08:16:15;7.85;;;2.30;;
51042;SDS011;37078;45.806;9.084;2022-09-09T08:18:42;7.38;;;2.00;;
51042;SDS011;37078;45.806;9.084;2022-09-09T08:21:10;7.38;;;2.30;;
51042;SDS011;37078;45.806;9.084;2022-09-09T08:23:41;6.50;;;2.33;;
51042;SDS011;37078;45.806;9.084;2022-09-09T08:28:41;5.68;;;2.20;;
51042;SDS011;37078;45.806;9.084;2022-09-09T08:31:08;6.80;;;1.95;;
51042;SDS011;37078;45.806;9.084;2022-09-09T08:33:42;7.13;;;2.13;;
51042;SDS011;37078;45.806;9.084;2022-09-09T08:36:11;6.78;;;2.28;;
51042;SDS011;37078;45.806;9.084;2022-09-09T08:38:40;7.03;;;2.20;;
51042;SDS011;37078;45.806;9.084;2022-09-09T08:43:50;8.88;;;2.40;;
51042;SDS011;37078;45.806;9.084;2022-09-09T08:46:30;6.43;;;2.22;;
51042;SDS011;37078;45.806;9.084;2022-09-09T08:49:06;5.78;;;2.10;;
51042;SDS011;37078;45.806;9.084;2022-09-09T08:51:54;9.13;;;2.33;;
51042;SDS011;37078;45.806;9.084;2022-09-09T08:54:22;7.78;;;2.30;;
51042;SDS011;37078;45.806;9.084;2022-09-09T08:56:48;6.07;;;1.92;;
51042;SDS011;37078;45.806;9.084;2022-09-09T08:59:15;7.88;;;2.20;;
51042;SDS011;37078;45.806;9.084;2022-09-09T09:10:13;6.25;;;1.92;;
51042;SDS011;37078;45.806;9.084;2022-09-09T09:12:41;6.72;;;2.17;;
51042;SDS011;37078;45.806;9.084;2022-09-09T09:15:19;6.20;;;2.00;;
51042;SDS011;37078;45.806;9.084;2022-09-09T09:17:48;6.45;;;2.08;;
51042;SDS011;37078;45.806;9.084;2022-09-09T09:20:14;5.05;;;1.95;;
51042;SDS011;37078;45.806;9.084;2022-09-09T09:22:47;4.20;;;1.92;;
51042;SDS011;37078;45.806;9.084;2022-09-09T09:27:58;6.13;;;2.20;;
51042;SDS011;37078;45.806;9.084;2022-09-09T09:30:38;5.55;;;2.00;;
51042;SDS011;37078;45.806;9.084;2022-09-09T09:33:23;4.43;;;2.00;;
51042;SDS011;37078;45.806;9.084;2022-09-09T09:35:59;5.22;;;2.00;;
51042;SDS011;37078;45.806;9.084;2022-09-09T09:38:25;5.15;;;1.92;;
51042;SDS011;37078;45.806;9.084;2022-09-09T09:40:55;5.25;;;2.03;;
51042;SDS011;37078;45.806;9.084;2022-09-09T09:45:55;7.00;;;1.92;;
51042;SDS011;37078;45.806;9.084;2022-09-09T09:48:25;5.20;;;1.98;;
51042;SDS011;37078;45.806;9.084;2022-09-09T09:50:58;5.38;;;1.92;;
51042;SDS011;37078;45.806;9.084;2022-09-09T09:53:36;4.15;;;1.83;;
51042;SDS011;37078;45.806;9.084;2022-09-09T09:56:05;5.45;;;2.05;;
51042;SDS011;37078;45.806;9.084;2022-09-09T09:58:33;4.10;;;1.90;;
51042;SDS011;37078;45.806;9.084;2022-09-09T10:01:02;4.22;;;1.80;;
51042;SDS011;37078;45.806;9.084;2022-09-09T10:03:29;5.70;;;1.90;;
51042;SDS011;37078;45.806;9.084;2022-09-09T10:05:55;5.45;;;2.20;;
51042;SDS011;37078;45.806;9.084;2022-09-09T10:08:22;6.20;;;2.15;;
51042;SDS011;37078;45.806;9.084;2022-09-09T10:10:56;4.75;;;2.08;;
51042;SDS011;37078;45.806;9.084;2022-09-09T10:13:29;4.28;;;1.90;;
51042;SDS011;37078;45.806;9.084;2022-09-09T10:18:59;5.53;;;2.20;;
51042;SDS011;37078;45.806;9.084;2022-09-09T10:26:51;5.68;;;2.22;;
51042;SDS011;37078;45.806;9.084;2022-09-09T10:34:55;5.20;;;2.00;;
51042;SDS011;37078;45.806;9.084;2022-09-09T10:56:35;4.13;;;1.77;;
51042;SDS011;37078;45.806;9.084;2022-09-09T11:01:37;6.75;;;2.00;;
51042;SDS011;37078;45.806;9.084;2022-09-09T11:04:13;6.07;;;2.08;;
51042;SDS011;37078;45.806;9.084;2022-09-09T11:06:44;5.05;;;2.10;;
51042;SDS011;37078;45.806;9.084;2022-09-09T11:09:18;3.83;;;1.85;;
51042;SDS011;37078;45.806;9.084;2022-09-09T11:11:52;3.95;;;1.90;;
51042;SDS011;37078;45.806;9.084;2022-09-09T11:14:26;4.85;;;1.83;;
51042;SDS011;37078;45.806;9.084;2022-09-09T11:19:35;4.32;;;1.80;;
51042;SDS011;37078;45.806;9.084;2022-09-09T11:22:14;7.00;;;2.00;;
51042;SDS011;37078;45.806;9.084;2022-09-09T11:24:43;3.83;;;1.80;;
51042;SDS011;37078;45.806;9.084;2022-09-09T11:27:22;5.70;;;2.10;;
51042;SDS011;37078;45.806;9.084;2022-09-09T11:40:34;4.35;;;2.00;;
51042;SDS011;37078;45.806;9.084;2022-09-09T11:43:10;4.70;;;1.90;;
51042;SDS011;37078;45.806;9.084;2022-09-09T11:45:39;5.03;;;1.80;;
51042;SDS011;37078;45.806;9.084;2022-09-09T11:51:02;3.08;;;1.80;;
51042;SDS011;37078;45.806;9.084;2022-09-09T11:53:28;4.65;;;2.00;;
51042;SDS011;37078;45.806;9.084;2022-09-09T11:58:26;4.63;;;2.00;;
51042;SDS011;37078;45.806;9.084;2022-09-09T12:00:54;6.93;;;2.17;;
51042;SDS011;37078;45.806;9.084;2022-09-09T12:09:08;4.70;;;2.10;;
51042;SDS011;37078;45.806;9.084;2022-09-09T12:11:40;7.90;;;2.08;;
51042;SDS011;37078;45.806;9.084;2022-09-09T12:14:18;6.13;;;2.10;;
51042;SDS011;37078;45.806;9.084;2022-09-09T12:17:08;5.88;;;1.88;;
51042;SDS011;37078;45.806;9.084;2022-09-09T12:19:46;6.05;;;2.25;;
51042;SDS011;37078;45.806;9.084;2022-09-09T12:22:22;5.40;;;2.03;;
51042;SDS011;37078;45.806;9.084;2022-09-09T12:25:09;6.10;;;2.03;;
51042;SDS011;37078;45.806;9.084;2022-09-09T12:31:14;5.30;;;2.25;;
51042;SDS011;37078;45.806;9.084;2022-09-09T12:33:45;7.68;;;2.88;;
51042;SDS011;37078;45.806;9.084;2022-09-09T12:36:30;4.35;;;2.03;;
51042;SDS011;37078;45.806;9.084;2022-09-09T12:38:58;7.75;;;2.17;;
51042;SDS011;37078;45.806;9.084;2022-09-09T12:41:35;8.23;;;2.13;;
51042;SDS011;37078;45.806;9.084;2022-09-09T12:44:05;5.40;;;2.08;;
51042;SDS011;37078;45.806;9.084;2022-09-09T12:46:34;7.28;;;2.20;;
51042;SDS011;37078;45.806;9.084;2022-09-09T12:49:05;4.30;;;2.00;;
51042;SDS011;37078;45.806;9.084;2022-09-09T12:51:46;6.72;;;2.28;;
51042;SDS011;37078;45.806;9.084;2022-09-09T12:54:12;7.10;;;2.58;;
51042;SDS011;37078;45.806;9.084;2022-09-09T12:56:39;6.10;;;2.17;;
51042;SDS011;37078;45.806;9.084;2022-09-09T12:59:04;4.18;;;2.00;;
51042;SDS011;37078;45.806;9.084;2022-09-09T13:01:31;5.38;;;2.20;;
51042;SDS011;37078;45.806;9.084;2022-09-09T13:04:00;5.32;;;2.20;;
51042;SDS011;37078;45.806;9.084;2022-09-09T13:06:26;5.82;;;2.20;;
51042;SDS011;37078;45.806;9.084;2022-09-09T13:08:54;8.00;;;2.20;;
51042;SDS011;37078;45.806;9.084;2022-09-09T13:11:24;5.07;;;2.40;;
51042;SDS011;37078;45.806;9.084;2022-09-09T13:13:56;5.95;;;2.40;;
51042;SDS011;37078;45.806;9.084;2022-09-09T13:16:25;6.07;;;2.58;;
51042;SDS011;37078;45.806;9.084;2022-09-09T13:18:56;8.60;;;2.60;;
51042;SDS011;37078;45.806;9.084;2022-09-09T13:21:36;6.57;;;2.60;;
51042;SDS011;37078;45.806;9.084;2022-09-09T13:24:03;6.00;;;2.47;;
51042;SDS011;37078;45.806;9.084;2022-09-09T13:27:00;6.75;;;2.60;;
51042;SDS011;37078;45.806;9.084;2022-09-09T13:29:27;6.38;;;2.47;;
51042;SDS011;37078;45.806;9.084;2022-09-09T13:31:54;8.20;;;2.50;;
51042;SDS011;37078;45.806;9.084;2022-09-09T13:34:33;7.22;;;2.60;;
51042;SDS011;37078;45.806;9.084;2022-09-09T13:37:04;6.22;;;2.58;;
51042;SDS011;37078;45.806;9.084;2022-09-09T13:39:35;9.23;;;2.80;;
51042;SDS011;37078;45.806;9.084;2022-09-09T13:42:02;7.72;;;2.70;;
51042;SDS011;37078;45.806;9.084;2022-09-09T13:44:30;8.95;;;2.90;;
51042;SDS011;37078;45.806;9.084;2022-09-09T13:47:04;8.95;;;2.80;;
51042;SDS011;37078;45.806;9.084;2022-09-09T13:49:31;7.40;;;2.85;;
51042;SDS011;37078;45.806;9.084;2022-09-09T13:52:11;7.70;;;3.17;;
51042;SDS011;37078;45.806;9.084;2022-09-09T13:54:38;7.90;;;2.85;;
51042;SDS011;37078;45.806;9.084;2022-09-09T13:57:05;7.32;;;2.90;;
51042;SDS011;37078;45.806;9.084;2022-09-09T13:59:31;8.02;;;2.90;;
51042;SDS011;37078;45.806;9.084;2022-09-09T14:01:57;8.80;;;3.00;;
51042;SDS011;37078;45.806;9.084;2022-09-09T14:04:22;7.43;;;2.90;;
51042;SDS011;37078;45.806;9.084;2022-09-09T14:06:49;7.63;;;2.88;;
51042;SDS011;37078;45.806;9.084;2022-09-09T14:09:16;7.63;;;2.80;;
51042;SDS011;37078;45.806;9.084;2022-09-09T14:11:43;10.15;;;3.20;;
51042;SDS011;37078;45.806;9.084;2022-09-09T14:14:13;8.68;;;2.92;;
51042;SDS011;37078;45.806;9.084;2022-09-09T14:16:38;10.35;;;3.10;;
51042;SDS011;37078;45.806;9.084;2022-09-09T14:19:03;7.60;;;2.85;;
51042;SDS011;37078;45.806;9.084;2022-09-09T14:21:29;9.07;;;2.90;;
51042;SDS011;37078;45.806;9.084;2022-09-09T14:23:54;11.07;;;3.25;;
51042;SDS011;37078;45.806;9.084;2022-09-09T14:26:23;8.23;;;3.00;;
51042;SDS011;37078;45.806;9.084;2022-09-09T14:28:49;7.05;;;2.83;;
51042;SDS011;37078;45.806;9.084;2022-09-09T14:31:15;8.40;;;3.05;;
51042;SDS011;37078;45.806;9.084;2022-09-09T14:33:42;9.80;;;3.17;;
51042;SDS011;37078;45.806;9.084;2022-09-09T14:36:08;8.13;;;2.88;;
51042;SDS011;37078;45.806;9.084;2022-09-09T14:38:35;8.35;;;3.00;;
51042;SDS011;37078;45.806;9.084;2022-09-09T14:41:05;10.40;;;3.30;;
51042;SDS011;37078;45.806;9.084;2022-09-09T14:43:31;8.02;;;2.80;;
51042;SDS011;37078;45.806;9.084;2022-09-09T14:45:57;7.18;;;2.90;;
51042;SDS011;37078;45.806;9.084;2022-09-09T14:48:39;10.75;;;3.00;;
51042;SDS011;37078;45.806;9.084;2022-09-09T14:51:10;8.93;;;2.90;;
51042;SDS011;37078;45.806;9.084;2022-09-09T14:53:38;7.40;;;2.83;;
51042;SDS011;37078;45.806;9.084;2022-09-09T14:58:35;10.65;;;3.05;;
51042;SDS011;37078;45.806;9.084;2022-09-09T15:01:02;6.03;;;2.60;;
51042;SDS011;37078;45.806;9.084;2022-09-09T15:03:31;7.88;;;2.90;;
51042;SDS011;37078;45.806;9.084;2022-09-09T15:05:57;8.02;;;3.00;;
51042;SDS011;37078;45.806;9.084;2022-09-09T15:08:25;9.30;;;3.25;;
51042;SDS011;37078;45.806;9.084;2022-09-09T15:10:57;10.07;;;3.20;;
51042;SDS011;37078;45.806;9.084;2022-09-09T15:13:24;9.75;;;3.03;;
51042;SDS011;37078;45.806;9.084;2022-09-09T15:15:50;8.65;;;3.30;;
51042;SDS011;37078;45.806;9.084;2022-09-09T15:18:15;9.13;;;3.17;;
51042;SDS011;37078;45.806;9.084;2022-09-09T15:20:44;10.13;;;3.10;;
51042;SDS011;37078;45.806;9.084;2022-09-09T15:23:11;10.20;;;3.22;;
51042;SDS011;37078;45.806;9.084;2022-09-09T15:25:37;10.23;;;3.00;;
51042;SDS011;37078;45.806;9.084;2022-09-09T15:28:02;8.10;;;2.90;;
51042;SDS011;37078;45.806;9.084;2022-09-09T15:30:27;8.30;;;2.90;;
51042;SDS011;37078;45.806;9.084;2022-09-09T15:32:53;10.82;;;2.95;;
51042;SDS011;37078;45.806;9.084;2022-09-09T15:35:19;10.68;;;3.20;;
51042;SDS011;37078;45.806;9.084;2022-09-09T15:37:45;9.13;;;2.80;;
51042;SDS011;37078;45.806;9.084;2022-09-09T15:40:10;7.28;;;3.00;;
51042;SDS011;37078;45.806;9.084;2022-09-09T15:42:35;9.13;;;3.30;;
51042;SDS011;37078;45.806;9.084;2022-09-09T15:45:01;11.05;;;3.05;;
51042;SDS011;37078;45.806;9.084;2022-09-09T15:47:26;7.47;;;2.90;;
51042;SDS011;37078;45.806;9.084;2022-09-09T15:49:52;7.35;;;2.80;;
51042;SDS011;37078;45.806;9.084;2022-09-09T15:52:18;9.05;;;2.80;;
51042;SDS011;37078;45.806;9.084;2022-09-09T15:54:43;8.68;;;3.00;;
51042;SDS011;37078;45.806;9.084;2022-09-09T15:57:10;8.55;;;2.90;;
51042;SDS011;37078;45.806;9.084;2022-09-09T15:59:39;10.05;;;2.90;;
51042;SDS011;37078;45.806;9.084;2022-09-09T16:02:05;8.68;;;3.15;;
51042;SDS011;37078;45.806;9.084;2022-09-09T16:04:30;7.32;;;2.70;;
51042;SDS011;37078;45.806;9.084;2022-09-09T16:07:05;7.65;;;2.70;;
51042;SDS011;37078;45.806;9.084;2022-09-09T16:09:33;8.88;;;3.35;;
51042;SDS011;37078;45.806;9.084;2022-09-09T16:12:00;9.02;;;3.00;;
51042;SDS011;37078;45.806;9.084;2022-09-09T16:14:27;8.15;;;2.85;;
51042;SDS011;37078;45.806;9.084;2022-09-09T16:16:53;8.85;;;3.00;;
51042;SDS011;37078;45.806;9.084;2022-09-09T16:19:19;9.48;;;3.10;;
51042;SDS011;37078;45.806;9.084;2022-09-09T16:21:45;9.27;;;2.65;;
51042;SDS011;37078;45.806;9.084;2022-09-09T16:24:13;8.10;;;3.00;;
51042;SDS011;37078;45.806;9.084;2022-09-09T16:26:41;7.90;;;2.90;;
51042;SDS011;37078;45.806;9.084;2022-09-09T16:29:12;9.23;;;3.33;;
51042;SDS011;37078;45.806;9.084;2022-09-09T16:31:38;10.02;;;3.20;;
51042;SDS011;37078;45.806;9.084;2022-09-09T16:34:05;8.80;;;3.25;;
51042;SDS011;37078;45.806;9.084;2022-09-09T16:36:31;10.40;;;3.22;;
51042;SDS011;37078;45.806;9.084;2022-09-09T16:39:02;10.48;;;3.30;;
51042;SDS011;37078;45.806;9.084;2022-09-09T16:41:30;9.73;;;3.65;;
51042;SDS011;37078;45.806;9.084;2022-09-09T16:43:56;9.50;;;3.20;;
51042;SDS011;37078;45.806;9.084;2022-09-09T16:46:22;9.45;;;3.45;;
51042;SDS011;37078;45.806;9.084;2022-09-09T16:48:49;9.88;;;3.45;;
51042;SDS011;37078;45.806;9.084;2022-09-09T16:51:22;8.90;;;3.38;;
51042;SDS011;37078;45.806;9.084;2022-09-09T16:53:50;11.25;;;3.30;;
51042;SDS011;37078;45.806;9.084;2022-09-09T16:56:17;10.40;;;3.85;;
51042;SDS011;37078;45.806;9.084;2022-09-09T16:58:48;11.85;;;3.38;;
51042;SDS011;37078;45.806;9.084;2022-09-09T17:01:15;8.88;;;3.33;;
51042;SDS011;37078;45.806;9.084;2022-09-09T17:03:41;10.68;;;3.30;;
51042;SDS011;37078;45.806;9.084;2022-09-09T17:06:10;10.68;;;3.88;;
51042;SDS011;37078;45.806;9.084;2022-09-09T17:08:37;13.68;;;3.40;;
51042;SDS011;37078;45.806;9.084;2022-09-09T17:11:04;12.32;;;3.60;;
51042;SDS011;37078;45.806;9.084;2022-09-09T17:13:50;11.55;;;3.38;;